Time;durP1;ratioP1;P1;durP2;ratioP2;P2;SDS_P1;SDS_P2;PMS_P1;PMS_P2;Temp;Humidity;BMP_temperature;BMP_pressure;BME280_temperature;BME280_humidity;BME280_pressure;Samples;Min_cycle;Max_cycle;Signal;HPM_P1;HPM_P2
2023/09/13 00:00:55;;;;;;;17.37;15.57;;;16.30;99.90;;;;;;5065568;28;20224;-83
2023/09/13 00:03:22;;;;;;;20.47;17.90;;;16.30;99.90;;;;;;5047362;28;20232;-83
2023/09/13 00:05:49;;;;;;;20.33;16.53;;;16.30;99.90;;;;;;5047327;28;20229;-83
2023/09/13 00:08:16;;;;;;;19.63;16.47;;;16.30;99.90;;;;;;5049551;28;20307;-82
2023/09/13 00:10:44;;;;;;;23.87;18.30;;;16.30;99.90;;;;;;5049279;28;20601;-82
2023/09/13 00:13:13;;;;;;;23.50;18.83;;;16.30;99.90;;;;;;5048478;28;20237;-82
2023/09/13 00:15:44;;;;;;;22.13;18.30;;;16.40;99.90;;;;;;5049459;28;20234;-82
2023/09/13 00:18:14;;;;;;;23.70;19.30;;;16.40;99.90;;;;;;5067261;28;20238;-82
2023/09/13 00:20:42;;;;;;;20.47;18.00;;;16.40;99.90;;;;;;5047699;28;20302;-83
2023/09/13 00:23:09;;;;;;;21.27;18.53;;;16.40;99.90;;;;;;5048730;28;20224;-83
2023/09/13 00:25:35;;;;;;;22.30;18.30;;;16.40;99.90;;;;;;5047436;28;20469;-83
2023/09/13 00:28:02;;;;;;;18.53;16.37;;;16.40;99.90;;;;;;5048244;28;20218;-83
2023/09/13 00:30:31;;;;;;;21.27;17.13;;;16.40;99.90;;;;;;5048202;28;20229;-82
2023/09/13 00:32:58;;;;;;;21.23;18.63;;;16.40;99.90;;;;;;5048627;28;20234;-83
2023/09/13 00:35:24;;;;;;;21.87;19.07;;;16.40;99.90;;;;;;5047844;28;20688;-83
2023/09/13 00:37:51;;;;;;;25.17;20.13;;;16.40;99.90;;;;;;5047776;28;20273;-82
2023/09/13 00:40:19;;;;;;;22.40;18.97;;;16.40;99.90;;;;;;5048230;28;20237;-83
2023/09/13 00:42:45;;;;;;;27.63;21.67;;;16.40;99.90;;;;;;5066475;28;20278;-83
2023/09/13 00:45:14;;;;;;;25.90;22.23;;;16.40;99.90;;;;;;5047971;28;20720;-81
2023/09/13 00:47:43;;;;;;;29.63;23.80;;;16.40;99.90;;;;;;5065429;28;20275;-82
2023/09/13 00:50:12;;;;;;;31.53;23.03;;;16.40;99.90;;;;;;5046161;28;20976;-82
2023/09/13 00:52:42;;;;;;;29.57;24.37;;;16.40;99.90;;;;;;5087558;22;20230;-96
2023/09/13 00:55:11;;;;;;;32.97;25.03;;;16.50;99.90;;;;;;5070713;28;20214;-95
2023/09/13 00:57:39;;;;;;;37.67;25.50;;;16.40;99.90;;;;;;5064275;28;20222;-95
2023/09/13 01:00:10;;;;;;;33.00;24.70;;;16.40;99.90;;;;;;5058350;28;20227;-95
2023/09/13 01:02:40;;;;;;;32.30;24.40;;;16.50;99.90;;;;;;5082581;28;20225;-95
2023/09/13 01:05:10;;;;;;;27.63;22.90;;;16.50;99.90;;;;;;5067701;28;20234;-95
2023/09/13 01:07:40;;;;;;;32.07;24.60;;;16.50;99.90;;;;;;5068394;28;20226;-96
2023/09/13 01:10:08;;;;;;;26.63;21.13;;;16.50;99.90;;;;;;5065756;28;20219;-95
2023/09/13 01:12:34;;;;;;;29.07;22.37;;;16.50;99.90;;;;;;5059850;28;20707;-96
2023/09/13 01:15:03;;;;;;;29.17;24.77;;;16.50;99.90;;;;;;5088774;28;20276;-96
2023/09/13 01:17:39;;;;;;;33.00;25.77;;;16.50;99.90;;;;;;5068885;28;20223;-96
2023/09/13 01:20:13;;;;;;;30.70;25.07;;;16.60;99.90;;;;;;5065246;28;20277;-95
2023/09/13 01:23:22;;;;;;;30.77;23.90;;;16.50;99.90;;;;;;5070463;28;20227;-95
2023/09/13 01:26:14;;;;;;;27.80;23.00;;;16.60;99.90;;;;;;5070505;28;20238;-96
2023/09/13 01:28:47;;;;;;;29.47;24.80;;;16.50;99.90;;;;;;5069374;28;20234;-95
2023/09/13 01:31:18;;;;;;;30.00;23.93;;;16.50;99.90;;;;;;5068748;28;20230;-95
2023/09/13 01:33:45;;;;;;;32.63;25.37;;;16.50;99.90;;;;;;5068286;28;20309;-96
2023/09/13 01:36:12;;;;;;;31.97;25.20;;;16.50;99.90;;;;;;5065976;28;20226;-96
2023/09/13 01:38:39;;;;;;;33.13;25.07;;;16.50;99.90;;;;;;5072194;28;20227;-96
2023/09/13 01:41:12;;;;;;;33.93;25.90;;;16.50;99.90;;;;;;5070228;28;20222;-96
2023/09/13 01:43:41;;;;;;;32.00;25.17;;;16.50;99.90;;;;;;5069574;28;20238;-96
2023/09/13 01:46:12;;;;;;;30.43;25.63;;;16.50;99.90;;;;;;5066444;28;20231;-96
2023/09/13 01:48:40;;;;;;;31.73;25.57;;;16.50;99.90;;;;;;5078873;28;20265;-96
2023/09/13 01:51:07;;;;;;;32.23;26.17;;;16.50;99.90;;;;;;5073305;28;20218;-95
2023/09/13 01:53:43;;;;;;;33.97;26.33;;;16.50;99.90;;;;;;5085686;28;20252;-95
2023/09/13 01:56:10;;;;;;;33.03;25.67;;;16.50;99.90;;;;;;5079349;28;20232;-95
2023/09/13 01:58:37;;;;;;;31.27;24.90;;;16.50;99.90;;;;;;5087942;28;20237;-95
2023/09/13 02:01:04;;;;;;;33.43;26.33;;;16.50;99.90;;;;;;5084265;28;20223;-96
2023/09/13 02:03:33;;;;;;;34.53;26.40;;;16.50;99.90;;;;;;5092230;28;20225;-95
2023/09/13 02:05:59;;;;;;;37.20;27.50;;;16.50;99.90;;;;;;5094061;28;20295;-95
2023/09/13 02:08:26;;;;;;;34.73;26.60;;;16.50;99.90;;;;;;5099015;28;20230;-96
2023/09/13 02:10:53;;;;;;;32.50;25.77;;;16.40;99.90;;;;;;5085472;28;20282;-95
2023/09/13 02:13:20;;;;;;;31.47;24.47;;;16.50;99.90;;;;;;5086951;28;20719;-95
2023/09/13 02:15:47;;;;;;;30.87;24.93;;;16.50;99.90;;;;;;5087397;28;20290;-95
2023/09/13 02:18:13;;;;;;;30.27;23.97;;;16.50;99.90;;;;;;5086740;28;20247;-96
2023/09/13 02:20:42;;;;;;;27.57;22.50;;;16.50;99.90;;;;;;5090104;28;20221;-95
2023/09/13 02:23:08;;;;;;;27.33;22.23;;;16.50;99.90;;;;;;5089357;28;20229;-95
2023/09/13 02:25:37;;;;;;;28.30;22.67;;;16.50;99.90;;;;;;5089053;28;20226;-94
2023/09/13 02:28:04;;;;;;;26.27;21.70;;;16.50;99.90;;;;;;5093076;28;20217;-96
2023/09/13 02:30:32;;;;;;;26.70;22.30;;;16.50;99.90;;;;;;5083844;28;20536;-95
2023/09/13 02:32:59;;;;;;;25.07;19.83;;;16.60;99.90;;;;;;5096759;28;20230;-96
2023/09/13 02:35:25;;;;;;;27.90;20.63;;;16.60;99.90;;;;;;5095808;28;20903;-95
2023/09/13 02:37:55;;;;;;;24.17;20.20;;;16.60;99.90;;;;;;5092893;28;20276;-95
2023/09/13 02:40:22;;;;;;;23.90;20.10;;;16.60;99.90;;;;;;5094394;28;20235;-96
2023/09/13 02:42:49;;;;;;;20.53;18.13;;;16.60;99.90;;;;;;5093702;28;20895;-95
2023/09/13 02:45:16;;;;;;;23.43;19.13;;;16.60;99.90;;;;;;5100077;28;20221;-95
2023/09/13 02:47:43;;;;;;;27.70;20.13;;;16.50;99.90;;;;;;5091310;28;20225;-96
2023/09/13 02:50:10;;;;;;;22.57;18.00;;;16.50;99.90;;;;;;5089398;28;20288;-95
2023/09/13 02:52:37;;;;;;;23.83;18.97;;;16.50;99.90;;;;;;5088228;28;20222;-95
2023/09/13 02:55:06;;;;;;;22.60;18.07;;;16.50;99.90;;;;;;5097487;28;20209;-95
2023/09/13 02:57:34;;;;;;;23.43;18.67;;;16.50;99.90;;;;;;5085188;28;20333;-95
2023/09/13 03:00:01;;;;;;;27.23;18.90;;;16.60;99.90;;;;;;5085639;28;20215;-94
2023/09/13 03:02:31;;;;;;;21.93;18.07;;;16.60;99.90;;;;;;5087158;28;20281;-95
2023/09/13 03:04:58;;;;;;;23.40;17.97;;;16.50;99.90;;;;;;5085076;28;20267;-94
2023/09/13 03:07:25;;;;;;;25.93;17.77;;;16.60;99.90;;;;;;5093118;28;20241;-94
2023/09/13 03:09:54;;;;;;;21.87;17.83;;;16.60;99.90;;;;;;5085819;28;20248;-94
2023/09/13 03:12:23;;;;;;;23.27;17.10;;;16.60;99.90;;;;;;5096720;28;20232;-94
2023/09/13 03:14:50;;;;;;;23.70;18.37;;;16.60;99.90;;;;;;5084928;28;20226;-94
2023/09/13 03:17:17;;;;;;;24.07;17.93;;;16.60;99.90;;;;;;5088780;28;20236;-94
2023/09/13 03:19:44;;;;;;;21.53;18.13;;;16.70;99.90;;;;;;5084823;28;20279;-95
2023/09/13 03:22:11;;;;;;;20.40;16.77;;;16.60;99.90;;;;;;5085323;28;20221;-95
2023/09/13 03:24:38;;;;;;;23.50;17.40;;;16.60;99.90;;;;;;5083346;28;20222;-94
2023/09/13 03:27:05;;;;;;;24.13;17.17;;;16.80;99.90;;;;;;5084529;28;20233;-95
2023/09/13 03:29:34;;;;;;;21.17;16.73;;;16.70;99.90;;;;;;5084274;28;20358;-94
2023/09/13 03:32:02;;;;;;;20.90;16.83;;;16.70;99.90;;;;;;5083334;28;20228;-95
2023/09/13 03:34:28;;;;;;;21.03;17.33;;;16.70;99.90;;;;;;5087443;28;20226;-94
2023/09/13 03:36:55;;;;;;;22.63;17.17;;;16.70;99.90;;;;;;5089615;28;21925;-94
2023/09/13 03:39:25;;;;;;;21.73;16.70;;;16.70;99.90;;;;;;5084775;28;20229;-95
2023/09/13 03:41:52;;;;;;;20.73;16.57;;;16.70;99.90;;;;;;5082895;28;20229;-95
2023/09/13 03:44:19;;;;;;;23.00;17.13;;;16.70;99.90;;;;;;5089812;28;20225;-95
2023/09/13 03:46:48;;;;;;;20.40;15.97;;;16.70;99.90;;;;;;5089991;28;20249;-96
2023/09/13 03:49:15;;;;;;;19.07;16.03;;;16.70;99.90;;;;;;5091848;28;20253;-94
2023/09/13 03:51:42;;;;;;;20.73;16.23;;;16.70;99.90;;;;;;5086357;28;20253;-95
2023/09/13 03:54:10;;;;;;;23.20;16.83;;;16.70;99.90;;;;;;5093448;28;20222;-94
2023/09/13 03:56:37;;;;;;;20.00;16.03;;;16.70;99.90;;;;;;5096866;28;20225;-92
2023/09/13 03:59:04;;;;;;;20.37;14.97;;;16.70;99.90;;;;;;5101394;28;20221;-93
2023/09/13 04:01:31;;;;;;;23.30;16.60;;;16.70;99.90;;;;;;5096670;28;21054;-92
2023/09/13 04:04:00;;;;;;;20.33;16.13;;;16.70;99.90;;;;;;5088349;28;20243;-93
2023/09/13 04:06:27;;;;;;;21.33;16.20;;;16.80;99.90;;;;;;5098439;28;20239;-92
2023/09/13 04:08:54;;;;;;;19.43;16.00;;;16.80;99.90;;;;;;5094598;28;20220;-92
2023/09/13 04:11:21;;;;;;;20.93;16.30;;;16.80;99.90;;;;;;5096817;28;20747;-92
2023/09/13 04:13:48;;;;;;;23.80;15.50;;;16.80;99.90;;;;;;5097495;28;20280;-92
2023/09/13 04:16:16;;;;;;;19.70;15.20;;;16.80;99.90;;;;;;5096261;28;20240;-92
2023/09/13 04:18:43;;;;;;;17.63;14.07;;;16.80;99.90;;;;;;5092296;28;20229;-93
2023/09/13 04:21:12;;;;;;;18.83;14.73;;;16.80;99.90;;;;;;5091260;28;20209;-93
2023/09/13 04:23:39;;;;;;;20.43;15.07;;;16.90;99.90;;;;;;5089354;28;20226;-93
2023/09/13 04:26:05;;;;;;;19.17;14.87;;;16.80;99.90;;;;;;5087661;28;20226;-92
2023/09/13 04:28:33;;;;;;;17.17;13.60;;;16.90;99.90;;;;;;5090734;28;20223;-94
2023/09/13 04:31:00;;;;;;;17.07;12.97;;;16.80;99.90;;;;;;5092934;28;21500;-94
2023/09/13 04:33:49;;;;;;;18.57;13.80;;;16.80;99.90;;;;;;5091343;28;20221;-93
2023/09/13 04:36:20;;;;;;;20.97;13.33;;;16.90;99.90;;;;;;5110191;22;20221;-80
2023/09/13 04:38:48;;;;;;;34.03;12.83;;;16.90;99.90;;;;;;5081880;28;20766;-79
2023/09/13 04:41:16;;;;;;;18.07;10.60;;;16.90;99.90;;;;;;5084140;28;20226;-79
2023/09/13 04:43:43;;;;;;;12.27;8.70;;;16.90;99.90;;;;;;5088379;28;20221;-79
2023/09/13 04:46:10;;;;;;;18.27;7.83;;;16.80;99.90;;;;;;5079214;28;20222;-79
2023/09/13 04:48:37;;;;;;;6.30;5.20;;;16.80;99.90;;;;;;5082989;28;20245;-79
2023/09/13 04:51:04;;;;;;;11.03;5.10;;;16.80;99.90;;;;;;5084336;28;20296;-79
2023/09/13 04:53:34;;;;;;;8.00;4.00;;;16.80;99.90;;;;;;5087079;28;20307;-80
2023/09/13 04:56:01;;;;;;;10.60;4.50;;;16.80;99.90;;;;;;5089938;28;20702;-79
2023/09/13 04:58:31;;;;;;;12.90;4.47;;;16.70;99.90;;;;;;5084710;28;20776;-79
2023/09/13 05:00:59;;;;;;;19.67;4.37;;;16.70;99.90;;;;;;5085585;28;20243;-79
2023/09/13 05:03:26;;;;;;;3.97;3.37;;;16.60;99.90;;;;;;5103884;27;20236;-80
2023/09/13 05:05:55;;;;;;;6.30;3.23;;;16.50;99.90;;;;;;5110537;28;20649;-79
2023/09/13 05:08:22;;;;;;;4.97;3.13;;;16.50;99.90;;;;;;5097987;28;20225;-79
2023/09/13 05:10:52;;;;;;;4.77;3.07;;;16.40;99.90;;;;;;5089539;28;20619;-80
2023/09/13 05:13:18;;;;;;;6.93;3.10;;;16.40;99.90;;;;;;5083311;28;20787;-80
2023/09/13 05:15:45;;;;;;;4.37;3.00;;;16.30;99.90;;;;;;5089831;28;20219;-80
2023/09/13 05:18:12;;;;;;;5.37;3.13;;;16.30;99.90;;;;;;5107774;28;20241;-80
2023/09/13 05:20:39;;;;;;;6.77;3.70;;;16.20;99.90;;;;;;5087693;28;20224;-80
2023/09/13 05:23:06;;;;;;;5.83;3.63;;;16.10;99.90;;;;;;5087484;28;20283;-80
2023/09/13 05:25:33;;;;;;;4.83;3.20;;;16.10;99.90;;;;;;5109332;28;20225;-80
2023/09/13 05:28:02;;;;;;;6.97;2.90;;;16.00;99.90;;;;;;5087289;28;20248;-79
2023/09/13 05:30:31;;;;;;;8.30;3.30;;;16.00;99.90;;;;;;5090989;28;20299;-80
2023/09/13 05:32:58;;;;;;;5.00;2.83;;;15.90;99.90;;;;;;5101568;28;20227;-80
2023/09/13 05:35:25;;;;;;;4.80;3.10;;;15.90;99.90;;;;;;5096788;28;21044;-80
2023/09/13 05:37:52;;;;;;;5.87;3.40;;;15.90;99.90;;;;;;5104902;28;20229;-80
2023/09/13 05:40:18;;;;;;;7.67;3.77;;;15.80;99.90;;;;;;5089503;28;20228;-81
2023/09/13 05:42:45;;;;;;;9.43;3.90;;;15.80;99.90;;;;;;5089568;28;20301;-81
2023/09/13 05:45:13;;;;;;;6.47;4.07;;;15.80;99.90;;;;;;5087539;28;20315;-80
2023/09/13 05:47:40;;;;;;;9.67;3.90;;;15.80;99.90;;;;;;5086117;28;20862;-80
2023/09/13 05:50:07;;;;;;;7.80;3.70;;;15.80;99.90;;;;;;5091389;28;20294;-81
2023/09/13 05:52:35;;;;;;;7.47;3.27;;;15.70;99.90;;;;;;5102953;28;20235;-82
2023/09/13 05:55:02;;;;;;;8.27;4.40;;;15.70;99.90;;;;;;5086420;28;20348;-81
2023/09/13 05:57:29;;;;;;;6.90;3.37;;;15.70;99.90;;;;;;5091996;28;20226;-81
2023/09/13 05:59:56;;;;;;;5.10;3.50;;;15.60;99.90;;;;;;5093431;28;20225;-81
2023/09/13 06:02:24;;;;;;;4.40;3.10;;;15.60;99.90;;;;;;5096038;28;20223;-82
2023/09/13 06:04:51;;;;;;;8.43;3.83;;;15.60;99.90;;;;;;5106557;27;20707;-81
2023/09/13 06:07:25;;;;;;;6.23;3.40;;;15.60;99.90;;;;;;5096983;28;20228;-81
2023/09/13 06:09:52;;;;;;;4.90;3.00;;;15.50;99.90;;;;;;5108071;28;20243;-81
2023/09/13 06:12:19;;;;;;;4.03;2.53;;;15.50;99.90;;;;;;5080618;28;20229;-82
2023/09/13 06:14:46;;;;;;;6.07;3.10;;;15.50;99.90;;;;;;5093970;28;20221;-81
2023/09/13 06:17:13;;;;;;;4.47;2.30;;;15.40;99.90;;;;;;5092134;28;20270;-81
2023/09/13 06:19:41;;;;;;;3.07;1.90;;;15.40;99.90;;;;;;5114825;28;20252;-82
2023/09/13 06:22:08;;;;;;;4.67;2.30;;;15.40;99.90;;;;;;5096697;28;20227;-81
2023/09/13 06:24:35;;;;;;;1.77;1.60;;;15.40;99.90;;;;;;5109111;28;20569;-81
2023/09/13 06:27:02;;;;;;;2.23;1.70;;;15.30;99.90;;;;;;5090563;28;20312;-81
2023/09/13 06:29:29;;;;;;;2.73;1.90;;;15.30;99.90;;;;;;5097537;28;20230;-80
2023/09/13 06:31:56;;;;;;;2.27;1.60;;;15.30;99.90;;;;;;5090708;28;20640;-80
2023/09/13 06:34:22;;;;;;;3.17;1.40;;;15.30;99.90;;;;;;5086602;28;20222;-80
2023/09/13 06:36:51;;;;;;;2.33;1.30;;;15.20;99.90;;;;;;5091322;28;20255;-80
2023/09/13 06:39:19;;;;;;;1.63;1.10;;;15.20;99.90;;;;;;5091570;28;20307;-80
2023/09/13 06:41:45;;;;;;;1.33;0.80;;;15.20;99.90;;;;;;5103158;28;20967;-81
2023/09/13 06:44:12;;;;;;;4.33;1.17;;;15.20;99.90;;;;;;5084551;28;20714;-81
2023/09/13 06:46:41;;;;;;;13.47;1.43;;;15.10;99.90;;;;;;5106463;28;20219;-82
2023/09/13 06:49:08;;;;;;;1.00;0.77;;;15.10;99.90;;;;;;5087190;28;22149;-82
2023/09/13 06:51:35;;;;;;;2.83;1.07;;;15.10;99.90;;;;;;5077423;28;20228;-81
2023/09/13 06:54:03;;;;;;;10.53;1.60;;;15.10;99.90;;;;;;5083014;28;20263;-82
2023/09/13 06:56:29;;;;;;;3.40;0.73;;;15.10;99.90;;;;;;5098543;22;20664;-79
2023/09/13 06:58:56;;;;;;;3.40;0.77;;;15.00;99.90;;;;;;5040208;28;20253;-78
2023/09/13 07:01:23;;;;;;;3.10;0.80;;;15.00;99.90;;;;;;5050838;28;20215;-79
2023/09/13 07:03:49;;;;;;;18.40;2.20;;;15.00;99.90;;;;;;5035763;28;20691;-79
2023/09/13 07:06:16;;;;;;;5.53;1.03;;;14.80;99.90;;;;;;5042205;28;20231;-78
2023/09/13 07:08:43;;;;;;;6.30;1.20;;;14.80;99.90;;;;;;5058461;28;20231;-79
2023/09/13 07:11:11;;;;;;;0.90;0.60;;;14.70;99.90;;;;;;5061501;28;20621;-79
2023/09/13 07:13:38;;;;;;;1.60;0.93;;;14.70;99.90;;;;;;5058180;28;21033;-78
2023/09/13 07:16:04;;;;;;;2.07;0.80;;;14.60;99.90;;;;;;5059168;28;20369;-79
2023/09/13 07:18:31;;;;;;;2.03;1.07;;;14.60;99.90;;;;;;5058985;28;20864;-78
2023/09/13 07:20:58;;;;;;;1.80;1.20;;;14.60;99.90;;;;;;5062605;28;20582;-79
2023/09/13 07:23:24;;;;;;;2.00;1.17;;;14.60;99.90;;;;;;5049566;28;21224;-78
2023/09/13 07:25:51;;;;;;;3.30;1.60;;;14.60;99.90;;;;;;5060809;28;20308;-83
2023/09/13 07:28:20;;;;;;;6.77;1.90;;;14.50;99.90;;;;;;5051710;28;20233;-83
2023/09/13 07:30:47;;;;;;;4.60;2.00;;;14.50;99.90;;;;;;5058304;28;20225;-83
2023/09/13 07:33:14;;;;;;;4.13;2.20;;;14.50;99.90;;;;;;5053526;28;20252;-82
2023/09/13 07:35:41;;;;;;;6.17;2.60;;;14.50;99.90;;;;;;5055953;28;20250;-83
2023/09/13 07:38:07;;;;;;;4.53;2.20;;;14.40;99.90;;;;;;5055064;28;20726;-82
2023/09/13 07:40:34;;;;;;;5.23;2.57;;;14.40;99.90;;;;;;5056698;28;20299;-82
2023/09/13 07:43:01;;;;;;;12.70;2.90;;;14.40;99.90;;;;;;5060661;28;20245;-82
2023/09/13 07:45:31;;;;;;;11.07;3.23;;;14.30;99.90;;;;;;5058794;28;20338;-82
2023/09/13 07:47:59;;;;;;;4.87;2.50;;;14.30;99.90;;;;;;5057297;28;20229;-81
2023/09/13 07:50:30;;;;;;;6.80;3.00;;;14.20;99.90;;;;;;5062034;28;20225;-81
2023/09/13 07:52:58;;;;;;;5.57;2.60;;;14.20;99.90;;;;;;5057849;28;20302;-82
2023/09/13 07:55:25;;;;;;;6.23;2.87;;;14.20;99.90;;;;;;5051750;28;20229;-82
2023/09/13 07:57:52;;;;;;;8.80;2.57;;;14.20;99.90;;;;;;5055264;28;20228;-82
2023/09/13 08:00:19;;;;;;;5.73;2.40;;;14.10;99.90;;;;;;5085792;28;20902;-82
2023/09/13 08:02:48;;;;;;;7.87;2.57;;;14.10;99.90;;;;;;5080900;28;20249;-82
2023/09/13 08:05:15;;;;;;;8.37;2.90;;;14.10;99.90;;;;;;5066577;28;20249;-82
2023/09/13 08:07:42;;;;;;;10.47;2.83;;;14.10;99.90;;;;;;5060658;28;20266;-81
2023/09/13 08:10:09;;;;;;;9.43;3.23;;;14.10;99.90;;;;;;5067946;28;20403;-82
2023/09/13 08:12:35;;;;;;;7.03;2.83;;;14.20;99.90;;;;;;5058754;28;20220;-83
2023/09/13 08:15:03;;;;;;;10.17;2.77;;;14.20;99.90;;;;;;5075879;28;20228;-82
2023/09/13 08:17:30;;;;;;;8.83;3.47;;;14.20;99.90;;;;;;5081335;28;20232;-86
2023/09/13 08:19:58;;;;;;;6.83;3.10;;;14.20;99.90;;;;;;5081047;28;20229;-82
2023/09/13 08:22:25;;;;;;;6.60;2.93;;;14.30;99.90;;;;;;5050135;28;20290;-84
2023/09/13 08:24:52;;;;;;;10.87;2.93;;;14.30;99.90;;;;;;5077040;28;20220;-82
2023/09/13 08:27:18;;;;;;;10.77;3.00;;;14.30;99.90;;;;;;5072052;28;20235;-84
2023/09/13 08:29:45;;;;;;;7.20;2.97;;;14.40;99.90;;;;;;5063204;28;20223;-82
2023/09/13 08:32:12;;;;;;;10.93;3.10;;;14.40;99.90;;;;;;5062276;28;20535;-85
2023/09/13 08:34:38;;;;;;;7.17;3.30;;;14.40;99.90;;;;;;5062394;28;20238;-85
2023/09/13 08:37:06;;;;;;;10.83;2.97;;;14.50;99.90;;;;;;5063316;28;20222;-82
2023/09/13 08:39:33;;;;;;;9.03;3.20;;;14.50;99.90;;;;;;5063702;28;20340;-83
2023/09/13 08:42:00;;;;;;;6.00;2.63;;;14.60;99.90;;;;;;5084586;28;20285;-82
2023/09/13 08:44:28;;;;;;;7.83;3.10;;;14.60;99.90;;;;;;5061518;28;20295;-83
2023/09/13 08:46:58;;;;;;;6.70;3.00;;;14.70;99.90;;;;;;5084337;28;20590;-81
2023/09/13 08:49:26;;;;;;;7.93;3.00;;;14.70;99.90;;;;;;5080975;28;20226;-82
2023/09/13 08:51:53;;;;;;;11.63;2.90;;;14.70;99.90;;;;;;5067858;28;20236;-85
2023/09/13 08:54:23;;;;;;;7.23;2.73;;;14.80;99.90;;;;;;5087282;28;20223;-82
2023/09/13 08:56:49;;;;;;;7.27;3.07;;;14.90;99.90;;;;;;5074604;28;20231;-82
2023/09/13 08:59:17;;;;;;;9.70;3.10;;;14.80;99.90;;;;;;5048219;28;20227;-82
2023/09/13 09:01:48;;;;;;;11.27;3.47;;;14.90;99.90;;;;;;5066785;28;20233;-81
2023/09/13 09:04:16;;;;;;;6.13;2.87;;;14.90;99.90;;;;;;5061093;28;20227;-82
2023/09/13 09:06:43;;;;;;;7.93;2.73;;;15.00;99.90;;;;;;5056500;28;20711;-82
2023/09/13 09:09:11;;;;;;;5.57;2.90;;;15.00;99.90;;;;;;5058406;28;20898;-82
2023/09/13 09:11:42;;;;;;;11.40;2.80;;;15.10;99.90;;;;;;5066711;28;20237;-82
2023/09/13 09:14:11;;;;;;;10.60;2.97;;;15.20;99.90;;;;;;5066425;28;20787;-82
2023/09/13 09:16:41;;;;;;;8.20;2.80;;;15.20;99.90;;;;;;5066481;28;20307;-82
2023/09/13 09:19:07;;;;;;;8.40;2.60;;;15.30;99.90;;;;;;5062963;28;20230;-83
2023/09/13 09:21:35;;;;;;;11.63;2.80;;;15.40;99.90;;;;;;5060149;28;20715;-81
2023/09/13 09:24:02;;;;;;;7.80;2.50;;;15.40;99.90;;;;;;5058750;28;20223;-81
2023/09/13 09:26:28;;;;;;;6.70;2.40;;;15.50;99.90;;;;;;5053040;28;20231;-81
2023/09/13 09:29:10;;;;;;;6.57;2.37;;;15.50;99.90;;;;;;5057386;28;20908;-81
2023/09/13 09:31:37;;;;;;;9.33;2.30;;;15.50;99.90;;;;;;5060499;28;20728;-80
2023/09/13 09:34:05;;;;;;;10.43;2.73;;;15.60;99.90;;;;;;5055803;28;20224;-80
2023/09/13 09:36:34;;;;;;;4.57;2.13;;;15.60;99.90;;;;;;5058201;28;20292;-81
2023/09/13 09:39:03;;;;;;;7.03;2.67;;;15.60;99.90;;;;;;5057752;28;20216;-80
2023/09/13 09:41:32;;;;;;;6.80;2.57;;;15.60;99.90;;;;;;5054317;28;20220;-81
2023/09/13 09:44:00;;;;;;;6.97;2.50;;;15.70;99.90;;;;;;5059370;28;20288;-80
2023/09/13 09:46:27;;;;;;;7.80;2.50;;;15.70;99.90;;;;;;5057413;28;20234;-80
2023/09/13 09:48:54;;;;;;;10.93;2.87;;;15.80;99.90;;;;;;5052494;28;20611;-80
2023/09/13 09:51:21;;;;;;;11.50;2.73;;;15.80;99.90;;;;;;5058093;28;20234;-80
2023/09/13 09:53:48;;;;;;;7.27;2.30;;;15.90;99.90;;;;;;5060219;28;20222;-81
2023/09/13 09:56:16;;;;;;;4.33;2.03;;;15.90;99.90;;;;;;5059868;28;20258;-81
2023/09/13 09:58:46;;;;;;;6.57;2.30;;;16.00;99.90;;;;;;5079657;28;20901;-80
2023/09/13 10:01:16;;;;;;;6.83;3.10;;;16.00;99.90;;;;;;5075977;28;20307;-80
2023/09/13 10:03:43;;;;;;;10.10;2.70;;;16.00;99.90;;;;;;5074813;28;20307;-80
2023/09/13 10:06:11;;;;;;;8.73;2.50;;;16.00;99.90;;;;;;5057813;28;20259;-80
2023/09/13 10:08:39;;;;;;;8.80;2.90;;;16.00;99.90;;;;;;5078472;28;20234;-80
2023/09/13 10:11:06;;;;;;;6.67;2.50;;;16.00;99.90;;;;;;5075046;28;20225;-80
2023/09/13 10:13:33;;;;;;;5.47;2.30;;;16.00;99.90;;;;;;5078018;28;20224;-80
2023/09/13 10:16:01;;;;;;;10.00;2.77;;;16.00;99.90;;;;;;5077365;28;20665;-80
2023/09/13 10:18:32;;;;;;;7.53;2.53;;;15.90;99.90;;;;;;5059921;28;20229;-80
2023/09/13 10:21:00;;;;;;;6.80;2.80;;;15.90;99.90;;;;;;5076609;28;20219;-80
2023/09/13 10:23:30;;;;;;;9.27;2.50;;;15.90;99.90;;;;;;5079045;28;20225;-80
2023/09/13 10:26:02;;;;;;;9.37;2.83;;;15.90;99.90;;;;;;5065915;28;20227;-80
2023/09/13 10:28:35;;;;;;;5.93;2.40;;;15.90;99.90;;;;;;5059554;28;20687;-80
2023/09/13 10:31:03;;;;;;;7.43;2.40;;;15.90;99.90;;;;;;5084085;28;20325;-80
2023/09/13 10:33:32;;;;;;;5.70;2.27;;;15.90;99.90;;;;;;5083143;28;20627;-80
2023/09/13 10:36:01;;;;;;;11.03;2.80;;;15.90;99.90;;;;;;5080952;28;20225;-80
2023/09/13 10:38:37;;;;;;;7.03;2.47;;;16.00;99.90;;;;;;5078797;28;20637;-80
2023/09/13 10:41:08;;;;;;;7.27;3.03;;;16.00;99.90;;;;;;5080865;28;20216;-80
2023/09/13 10:43:37;;;;;;;9.47;2.80;;;16.10;99.90;;;;;;5062605;28;20225;-80
2023/09/13 10:46:04;;;;;;;12.23;2.97;;;16.10;99.90;;;;;;5083185;28;20267;-80
2023/09/13 10:48:35;;;;;;;7.53;2.10;;;16.10;99.90;;;;;;5055967;28;20591;-80
2023/09/13 10:51:02;;;;;;;7.77;2.70;;;16.10;99.90;;;;;;5080832;28;20232;-81
2023/09/13 10:53:29;;;;;;;8.43;2.50;;;16.10;99.90;;;;;;5058839;28;20229;-80
2023/09/13 10:55:57;;;;;;;5.63;2.50;;;16.20;99.90;;;;;;5057212;28;20273;-80
2023/09/13 10:58:26;;;;;;;6.90;2.43;;;16.20;99.90;;;;;;5064583;28;20260;-80
2023/09/13 11:00:54;;;;;;;6.97;2.50;;;16.30;99.90;;;;;;5063903;28;20768;-80
2023/09/13 11:03:22;;;;;;;9.40;3.20;;;16.30;99.90;;;;;;5061159;28;20228;-80
2023/09/13 11:05:57;;;;;;;8.67;2.90;;;16.30;99.90;;;;;;5066926;28;20222;-80
2023/09/13 11:08:31;;;;;;;5.87;2.30;;;16.30;99.90;;;;;;5061267;28;20635;-80
2023/09/13 11:11:08;;;;;;;5.70;2.37;;;16.40;99.90;;;;;;5061716;28;20232;-80
2023/09/13 11:13:35;;;;;;;6.47;3.10;;;16.40;99.90;;;;;;5063890;28;20232;-80
2023/09/13 11:16:04;;;;;;;7.43;2.63;;;16.40;99.90;;;;;;5057749;28;20234;-80
2023/09/13 11:18:31;;;;;;;4.83;2.33;;;16.40;99.90;;;;;;5058722;28;20213;-80
2023/09/13 11:21:00;;;;;;;6.33;2.40;;;16.40;99.90;;;;;;5029782;28;20753;-80
2023/09/13 11:23:26;;;;;;;8.50;2.93;;;16.30;99.90;;;;;;5046385;28;20647;-80
2023/09/13 11:25:54;;;;;;;7.33;2.30;;;16.30;99.90;;;;;;5060987;28;20277;-80
2023/09/13 11:28:43;;;;;;;6.40;2.80;;;16.30;99.90;;;;;;5070478;28;20220;-80
2023/09/13 11:31:11;;;;;;;7.43;2.60;;;16.30;99.90;;;;;;5068569;28;20301;-80
2023/09/13 11:33:40;;;;;;;8.53;3.00;;;16.30;99.90;;;;;;5047587;28;20241;-80
2023/09/13 11:36:08;;;;;;;5.57;2.50;;;16.20;99.90;;;;;;5071540;28;20597;-80
2023/09/13 11:38:36;;;;;;;7.47;2.73;;;16.20;99.90;;;;;;5051737;28;20221;-80
2023/09/13 11:41:03;;;;;;;7.87;2.50;;;16.10;99.90;;;;;;5049169;28;20216;-80
2023/09/13 11:43:30;;;;;;;8.77;2.60;;;16.10;99.90;;;;;;5064853;28;20221;-80
2023/09/13 11:45:58;;;;;;;8.30;2.73;;;16.10;99.90;;;;;;5055587;28;20250;-81
2023/09/13 11:48:29;;;;;;;5.07;2.60;;;16.10;99.90;;;;;;5044236;28;20231;-80
2023/09/13 11:50:56;;;;;;;7.00;2.73;;;16.10;99.90;;;;;;5045317;28;20331;-80
2023/09/13 11:53:28;;;;;;;6.77;2.53;;;16.10;99.90;;;;;;5063161;28;20218;-81
2023/09/13 11:55:56;;;;;;;6.70;2.30;;;16.10;99.90;;;;;;5062418;28;20913;-81
2023/09/13 11:58:31;;;;;;;8.00;2.93;;;16.20;99.90;;;;;;5081761;28;20220;-82
2023/09/13 12:01:00;;;;;;;5.10;2.60;;;16.20;99.90;;;;;;5077499;28;20213;-82
2023/09/13 12:03:28;;;;;;;7.63;2.70;;;16.30;99.90;;;;;;5058423;28;20242;-84
2023/09/13 12:05:56;;;;;;;6.40;2.53;;;16.30;99.90;;;;;;5077924;28;20254;-83
2023/09/13 12:08:24;;;;;;;7.03;2.90;;;16.30;99.90;;;;;;5077314;28;20315;-83
2023/09/13 12:10:53;;;;;;;4.93;2.50;;;16.30;99.90;;;;;;5060524;28;20675;-83
2023/09/13 12:13:20;;;;;;;8.77;2.90;;;16.40;99.90;;;;;;5078813;28;20233;-83
2023/09/13 12:16:00;;;;;;;7.10;2.27;;;16.40;99.90;;;;;;5079776;28;20226;-83
2023/09/13 12:18:28;;;;;;;8.33;2.77;;;16.40;99.90;;;;;;5062479;28;20235;-83
2023/09/13 12:20:58;;;;;;;7.50;2.33;;;16.50;99.90;;;;;;5072656;28;20268;-82
2023/09/13 12:23:25;;;;;;;6.33;2.43;;;16.50;99.90;;;;;;5076276;28;20240;-83
2023/09/13 12:25:53;;;;;;;6.90;2.10;;;16.60;99.90;;;;;;5081239;28;20230;-82
2023/09/13 12:28:27;;;;;;;12.40;2.70;;;16.60;99.90;;;;;;5081642;28;20677;-82
2023/09/13 12:30:55;;;;;;;7.17;2.37;;;16.60;99.90;;;;;;5080777;28;20222;-82
2023/09/13 12:33:24;;;;;;;6.57;1.80;;;16.60;99.90;;;;;;5063596;28;20260;-82
2023/09/13 12:35:51;;;;;;;7.10;2.30;;;16.60;99.90;;;;;;5075857;28;20214;-82
2023/09/13 12:38:19;;;;;;;6.10;1.97;;;16.60;99.90;;;;;;5057785;28;20646;-82
2023/09/13 12:40:54;;;;;;;4.43;1.70;;;16.60;99.90;;;;;;5060018;28;20362;-82
2023/09/13 12:43:27;;;;;;;3.60;1.90;;;16.50;99.90;;;;;;5078301;28;20228;-81